createdAt,value
2018-05-21T00:01:51.679Z,84.99
2018-05-21T00:04:19.321Z,85.31
2018-05-21T00:06:46.976Z,86.17
2018-05-21T00:09:14.613Z,87.43
2018-05-21T00:11:42.245Z,86.88
2018-05-21T00:14:09.965Z,86.30
2018-05-21T00:16:37.583Z,85.93
2018-05-21T00:19:05.219Z,85.26
2018-05-21T00:21:32.817Z,84.95
2018-05-21T00:24:00.458Z,85.22
2018-05-21T00:26:28.052Z,85.31
2018-05-21T00:28:55.663Z,85.90
2018-05-21T00:31:23.287Z,87.76
2018-05-21T00:33:50.948Z,86.01
2018-05-21T00:36:18.545Z,85.92
2018-05-21T00:38:46.175Z,86.30
2018-05-21T00:41:13.840Z,86.78
2018-05-21T00:43:41.524Z,86.77
2018-05-21T00:46:09.182Z,86.68
2018-05-21T00:48:36.800Z,86.58
2018-05-21T00:51:04.547Z,86.49
2018-05-21T00:53:32.199Z,86.05
2018-05-21T00:55:59.780Z,85.97
2018-05-21T00:58:27.448Z,85.81
2018-05-21T01:00:55.061Z,85.31
2018-05-21T01:03:22.644Z,85.65
2018-05-21T01:05:50.316Z,86.22
2018-05-21T01:08:17.943Z,86.90
2018-05-21T01:10:45.547Z,86.85
2018-05-21T01:13:13.215Z,86.87
2018-05-21T01:15:40.887Z,86.87
2018-05-21T01:18:09.398Z,86.91
2018-05-21T01:20:37.019Z,86.77
2018-05-21T01:23:04.603Z,86.14
2018-05-21T01:25:32.264Z,86.00
2018-05-21T01:27:59.936Z,86.47
2018-05-21T01:30:27.548Z,86.37
2018-05-21T01:32:55.183Z,86.35
2018-05-21T01:35:22.853Z,86.33
2018-05-21T01:37:50.456Z,86.13
2018-05-21T01:40:18.054Z,86.43
2018-05-21T01:42:45.707Z,86.92
2018-05-21T01:45:13.290Z,86.80
2018-05-21T01:47:40.934Z,86.57
2018-05-21T01:50:15.878Z,86.50
2018-05-21T01:52:43.528Z,86.50
2018-05-21T01:55:11.127Z,86.80
2018-05-21T01:57:38.787Z,86.83
2018-05-21T02:00:06.433Z,86.22
2018-05-21T02:02:34.088Z,86.81
2018-05-21T02:05:01.710Z,86.95
2018-05-21T02:07:29.357Z,86.83
2018-05-21T02:09:56.994Z,87.56
2018-05-21T02:12:24.662Z,87.41
2018-05-21T02:14:52.250Z,87.49
2018-05-21T02:17:19.914Z,87.60
2018-05-21T02:19:47.504Z,87.08
2018-05-21T02:22:15.145Z,87.27
2018-05-21T02:24:42.754Z,87.68
2018-05-21T02:27:10.412Z,87.66
2018-05-21T02:29:38.078Z,87.96
2018-05-21T02:32:05.731Z,87.38
2018-05-21T02:34:33.406Z,87.47
2018-05-21T02:37:01.052Z,88.47
2018-05-21T02:39:28.659Z,88.79
2018-05-21T02:41:56.309Z,88.70
2018-05-21T02:44:23.913Z,88.87
2018-05-21T02:46:51.549Z,88.68
2018-05-21T02:49:19.210Z,87.92
2018-05-21T02:51:46.825Z,86.74
2018-05-21T02:54:14.453Z,88.65
2018-05-21T02:56:42.084Z,88.69
2018-05-21T02:59:09.740Z,88.73
2018-05-21T03:01:37.432Z,88.39
2018-05-21T03:04:05.032Z,88.04
2018-05-21T03:06:32.695Z,87.87
2018-05-21T03:09:00.323Z,87.90
2018-05-21T03:11:28.016Z,88.14
2018-05-21T03:13:55.600Z,88.42
2018-05-21T03:16:23.242Z,88.18
2018-05-21T03:18:50.867Z,88.18
2018-05-21T03:21:18.524Z,88.33
2018-05-21T03:23:46.132Z,88.39
2018-05-21T03:26:13.758Z,88.28
2018-05-21T03:28:41.358Z,87.86
2018-05-21T03:31:09.015Z,88.18
2018-05-21T03:33:36.678Z,88.32
2018-05-21T03:36:04.394Z,88.79
2018-05-21T03:38:32.085Z,89.04
2018-05-21T03:40:59.729Z,89.30
2018-05-21T03:43:27.384Z,88.70
2018-05-21T03:45:55.024Z,88.75
2018-05-21T03:48:22.608Z,89.30
2018-05-21T03:50:50.252Z,90.21
2018-05-21T03:53:18.965Z,89.46
2018-05-21T03:55:46.604Z,89.24
2018-05-21T03:58:25.983Z,89.08
2018-05-21T04:01:05.283Z,88.86
2018-05-21T04:03:44.709Z,89.24
2018-05-21T04:06:12.476Z,89.42
2018-05-21T04:08:40.088Z,89.27
2018-05-21T04:11:07.807Z,89.29
2018-05-21T04:13:35.482Z,89.15
2018-05-21T04:16:04.292Z,88.79
2018-05-21T04:18:31.996Z,88.65
2018-05-21T04:20:59.618Z,88.65
2018-05-21T04:23:27.276Z,89.10
2018-05-21T04:25:54.982Z,89.06
2018-05-21T04:28:23.582Z,88.71
2018-05-21T04:30:51.181Z,88.20
2018-05-21T04:33:18.849Z,88.45
2018-05-21T04:35:46.463Z,88.89
2018-05-21T04:38:14.088Z,88.95
2018-05-21T04:40:41.772Z,89.09
2018-05-21T04:43:09.430Z,89.09
2018-05-21T04:45:37.079Z,89.09
2018-05-21T04:48:04.691Z,89.44
2018-05-21T04:50:32.347Z,88.34
2018-05-21T04:53:00.057Z,87.79
2018-05-21T04:55:27.709Z,87.67
2018-05-21T04:57:55.396Z,88.29
2018-05-21T05:00:23.049Z,88.24
2018-05-21T05:02:50.645Z,88.38
2018-05-21T05:05:18.306Z,87.57
2018-05-21T05:07:45.977Z,88.13
2018-05-21T05:10:13.634Z,88.54
2018-05-21T05:12:41.317Z,88.41
2018-05-21T05:15:08.966Z,88.44
2018-05-21T05:17:36.614Z,88.07
2018-05-21T05:20:04.364Z,87.81
2018-05-21T05:22:31.981Z,86.70
2018-05-21T05:25:00.505Z,86.59
2018-05-21T05:27:28.121Z,86.91
2018-05-21T05:29:55.777Z,86.43
2018-05-21T05:32:23.377Z,86.51
2018-05-21T05:34:51.025Z,85.44
2018-05-21T05:37:18.639Z,83.73
2018-05-21T05:39:46.470Z,85.74
2018-05-21T05:42:14.245Z,85.48
2018-05-21T05:44:42.344Z,84.90
2018-05-21T05:47:10.319Z,84.98
2018-05-21T05:49:38.222Z,83.87
2018-05-21T05:52:06.087Z,83.23
2018-05-21T05:54:35.213Z,83.58
2018-05-21T05:57:03.215Z,83.95
2018-05-21T05:59:31.033Z,82.31
2018-05-21T06:01:59.218Z,79.53
2018-05-21T06:04:28.037Z,80.18
2018-05-21T06:06:55.762Z,80.38
2018-05-21T06:09:23.900Z,78.97
2018-05-21T06:11:51.810Z,78.67
2018-05-21T06:14:20.564Z,79.08
2018-05-21T06:16:48.363Z,79.10
2018-05-21T06:19:17.271Z,77.37
2018-05-21T06:21:45.029Z,74.10
2018-05-21T06:24:12.802Z,73.50
2018-05-21T06:26:42.018Z,72.94
2018-05-21T06:29:09.901Z,71.31
2018-05-21T06:31:37.573Z,70.84
2018-05-21T06:34:05.297Z,68.55
2018-05-21T06:36:32.986Z,69.02
2018-05-21T06:39:00.633Z,67.09
2018-05-21T06:41:28.340Z,68.10
2018-05-21T06:43:55.951Z,69.06
2018-05-21T06:46:23.566Z,68.14
2018-05-21T06:48:51.883Z,65.94
2018-05-21T06:51:20.364Z,65.21
2018-05-21T06:53:48.824Z,64.46
2018-05-21T06:56:17.433Z,65.15
2018-05-21T06:58:45.180Z,64.66
2018-05-21T07:01:12.905Z,62.82
2018-05-21T07:03:40.633Z,63.83
2018-05-21T07:06:08.667Z,62.07
2018-05-21T07:08:36.347Z,61.92
2018-05-21T07:11:03.998Z,61.13
2018-05-21T07:13:31.741Z,58.91
2018-05-21T07:15:59.585Z,59.18
2018-05-21T07:18:27.757Z,58.45
2018-05-21T07:20:57.097Z,59.50
2018-05-21T07:23:24.842Z,60.26
2018-05-21T07:25:52.846Z,60.71
2018-05-21T07:28:22.466Z,60.17
2018-05-21T07:30:50.839Z,59.24
2018-05-21T07:33:18.693Z,61.05
2018-05-21T07:35:46.943Z,60.35
2018-05-21T07:38:14.841Z,58.97
2018-05-21T07:40:45.194Z,59.54
2018-05-21T07:43:12.832Z,58.70
2018-05-21T07:45:40.663Z,58.40
2018-05-21T07:48:08.325Z,58.17
2018-05-21T07:50:36.091Z,58.66
2018-05-21T07:53:06.563Z,58.03
2018-05-21T07:55:34.181Z,56.84
2018-05-21T07:58:01.855Z,54.01
2018-05-21T08:00:29.540Z,55.18
2018-05-21T08:02:57.181Z,57.07
2018-05-21T08:05:24.907Z,52.95
2018-05-21T08:07:52.607Z,54.03
2018-05-21T08:10:20.357Z,54.30
2018-05-21T08:12:48.074Z,53.67
2018-05-21T08:15:15.743Z,53.54
2018-05-21T08:17:43.446Z,53.49
2018-05-21T08:20:11.353Z,53.72
2018-05-21T08:22:39.013Z,53.20
2018-05-21T08:25:06.675Z,52.33
2018-05-21T08:27:34.361Z,49.95
2018-05-21T08:30:02.056Z,52.02
2018-05-21T08:32:29.681Z,53.53
2018-05-21T08:34:57.349Z,48.79
2018-05-21T08:37:25.035Z,50.10
2018-05-21T08:39:52.713Z,52.19
2018-05-21T08:42:21.214Z,49.74
2018-05-21T08:44:48.831Z,48.26
2018-05-21T08:47:16.504Z,46.84
2018-05-21T08:49:44.125Z,48.94
2018-05-21T08:52:11.797Z,47.20
2018-05-21T08:54:39.410Z,46.16
2018-05-21T08:57:07.116Z,47.67
2018-05-21T08:59:34.723Z,47.01
2018-05-21T09:02:02.451Z,47.79
2018-05-21T09:04:30.197Z,47.38
2018-05-21T09:06:57.870Z,47.03
2018-05-21T09:09:25.550Z,43.79
2018-05-21T09:11:53.218Z,46.02
2018-05-21T09:14:20.844Z,46.96
2018-05-21T09:16:48.617Z,48.14
2018-05-21T09:19:17.114Z,46.41
2018-05-21T09:21:44.773Z,47.44
2018-05-21T09:24:12.473Z,46.10
2018-05-21T09:26:40.155Z,46.86
2018-05-21T09:29:07.844Z,47.88
2018-05-21T09:31:35.576Z,46.17
2018-05-21T09:34:03.214Z,47.05
2018-05-21T09:36:30.907Z,45.82
2018-05-21T09:38:58.548Z,43.72
2018-05-21T09:41:26.245Z,44.09
2018-05-21T09:43:53.860Z,45.76
2018-05-21T09:46:21.534Z,46.19
2018-05-21T09:48:49.208Z,47.01
2018-05-21T09:51:16.908Z,47.23
2018-05-21T09:53:44.548Z,44.53
2018-05-21T09:56:12.207Z,46.31
2018-05-21T09:58:39.832Z,48.99
2018-05-21T10:01:07.515Z,44.45
2018-05-21T10:03:35.214Z,46.38
2018-05-21T10:06:02.872Z,41.38
2018-05-21T10:08:30.549Z,40.06
2018-05-21T10:10:59.194Z,41.79
2018-05-21T10:13:26.790Z,42.06
2018-05-21T10:15:54.438Z,42.78
2018-05-21T10:18:22.139Z,41.11
2018-05-21T10:20:49.766Z,41.92
2018-05-21T10:23:17.429Z,40.01
2018-05-21T10:25:45.054Z,38.76
2018-05-21T10:28:12.735Z,41.42
2018-05-21T10:30:40.350Z,38.39
2018-05-21T10:33:08.074Z,39.94
2018-05-21T10:35:35.711Z,42.62
2018-05-21T10:38:03.384Z,42.25
2018-05-21T10:40:31.084Z,39.06
2018-05-21T10:42:58.695Z,36.61
2018-05-21T10:45:26.369Z,39.02
2018-05-21T10:47:54.022Z,40.33
2018-05-21T10:50:21.663Z,41.24
2018-05-21T10:52:49.301Z,42.23
2018-05-21T10:55:17.019Z,42.52
2018-05-21T10:57:44.775Z,40.84
2018-05-21T11:00:12.399Z,41.81
2018-05-21T11:02:40.135Z,41.50
2018-05-21T11:05:07.809Z,40.73
2018-05-21T11:07:35.507Z,43.10
2018-05-21T11:10:03.168Z,40.31
2018-05-21T11:12:30.879Z,42.45
2018-05-21T11:14:58.630Z,43.95
2018-05-21T11:17:26.288Z,41.29
2018-05-21T11:19:53.952Z,42.48
2018-05-21T11:22:21.585Z,41.46
2018-05-21T11:24:49.245Z,41.15
2018-05-21T11:27:16.941Z,41.49
2018-05-21T11:29:44.616Z,42.62
2018-05-21T11:32:12.229Z,40.51
2018-05-21T11:34:39.917Z,42.30
2018-05-21T11:37:07.602Z,41.40
2018-05-21T11:39:35.255Z,42.47
2018-05-21T11:42:02.859Z,39.20
2018-05-21T11:44:30.556Z,41.31
2018-05-21T11:46:58.649Z,41.57
2018-05-21T11:49:27.495Z,41.41
2018-05-21T11:51:55.194Z,40.25
2018-05-21T11:54:22.919Z,40.89
2018-05-21T11:56:51.135Z,40.72
2018-05-21T11:59:19.008Z,41.98
2018-05-21T12:01:46.624Z,42.90
2018-05-21T12:04:14.313Z,42.78
2018-05-21T12:06:41.972Z,42.41
2018-05-21T12:09:09.701Z,41.45
2018-05-21T12:11:37.367Z,43.86
2018-05-21T12:14:05.084Z,43.58
2018-05-21T12:16:32.728Z,43.60
2018-05-21T12:19:00.393Z,42.13
2018-05-21T12:21:28.089Z,40.98
2018-05-21T12:23:55.787Z,42.49
2018-05-21T12:26:23.951Z,41.84
2018-05-21T12:28:51.645Z,42.80
2018-05-21T12:31:19.293Z,43.25
2018-05-21T12:33:46.919Z,42.59
2018-05-21T12:36:14.587Z,42.69
2018-05-21T12:38:42.216Z,42.57
2018-05-21T12:41:09.959Z,42.48
2018-05-21T12:43:37.613Z,43.89
2018-05-21T12:46:05.440Z,42.33
2018-05-21T12:48:33.191Z,43.39
2018-05-21T12:51:00.811Z,42.92
2018-05-21T12:53:28.555Z,40.39
2018-05-21T12:55:56.228Z,42.57
2018-05-21T12:58:23.873Z,42.45
2018-05-21T13:00:51.503Z,41.60
2018-05-21T13:03:19.157Z,41.75
2018-05-21T13:05:46.760Z,43.16
2018-05-21T13:08:14.456Z,41.76
2018-05-21T13:10:42.078Z,41.45
2018-05-21T13:13:09.811Z,42.64
2018-05-21T13:15:37.461Z,42.18
2018-05-21T13:18:05.197Z,41.26
2018-05-21T13:20:32.887Z,38.90
2018-05-21T13:23:00.556Z,39.52
2018-05-21T13:25:28.167Z,39.49
2018-05-21T13:27:55.872Z,39.71
2018-05-21T13:30:23.552Z,40.00
2018-05-21T13:32:51.248Z,40.27
2018-05-21T13:35:18.904Z,37.67
2018-05-21T13:37:46.516Z,37.00
2018-05-21T13:40:15.355Z,39.00
2018-05-21T13:42:43.038Z,39.96
2018-05-21T13:45:10.658Z,39.46
2018-05-21T13:47:38.337Z,38.25
2018-05-21T13:50:06.042Z,39.17
2018-05-21T13:52:33.722Z,38.57
2018-05-21T13:55:01.374Z,40.15
2018-05-21T13:57:29.019Z,40.09
2018-05-21T13:59:56.677Z,39.92
2018-05-21T14:02:24.280Z,40.89
2018-05-21T14:04:52.364Z,41.55
2018-05-21T14:07:20.981Z,40.29
2018-05-21T14:09:48.611Z,41.35
2018-05-21T14:12:16.858Z,40.68
2018-05-21T14:14:44.671Z,41.29
2018-05-21T14:17:12.395Z,41.40
2018-05-21T14:19:40.102Z,42.35
2018-05-21T14:22:07.725Z,42.73
2018-05-21T14:24:35.378Z,42.87
2018-05-21T14:27:04.023Z,43.24
2018-05-21T14:29:31.859Z,42.44
2018-05-21T14:31:59.582Z,44.40
2018-05-21T14:34:27.385Z,42.69
2018-05-21T14:36:55.112Z,42.21
2018-05-21T14:39:22.769Z,42.57
2018-05-21T14:41:50.575Z,40.82
2018-05-21T14:44:18.190Z,40.45
2018-05-21T14:46:45.909Z,41.54
2018-05-21T14:49:13.544Z,41.21
2018-05-21T14:51:41.249Z,39.66
2018-05-21T14:54:08.979Z,41.26
2018-05-21T14:56:36.955Z,40.92
2018-05-21T14:59:04.734Z,41.25
2018-05-21T15:01:32.580Z,40.28
2018-05-21T15:04:00.239Z,41.49
2018-05-21T15:06:27.994Z,40.78
2018-05-21T15:08:55.600Z,41.98
2018-05-21T15:11:23.296Z,41.35
2018-05-21T15:13:51.016Z,40.01
2018-05-21T15:16:18.626Z,41.76
2018-05-21T15:18:46.312Z,40.41
2018-05-21T15:21:13.917Z,42.30
2018-05-21T15:23:41.634Z,41.82
2018-05-21T15:26:09.281Z,41.07
2018-05-21T15:28:36.957Z,42.04
2018-05-21T15:31:04.654Z,41.99
2018-05-21T15:33:32.995Z,42.14
2018-05-21T15:36:00.721Z,43.18
2018-05-21T15:38:28.455Z,41.60
2018-05-21T15:40:56.149Z,42.78
2018-05-21T15:43:23.843Z,42.07
2018-05-21T15:45:51.495Z,42.25
2018-05-21T15:48:19.187Z,42.89
2018-05-21T15:50:46.845Z,42.92
2018-05-21T15:53:14.525Z,42.85
2018-05-21T15:55:42.150Z,42.68
2018-05-21T15:58:09.878Z,42.87
2018-05-21T16:00:37.483Z,43.23
2018-05-21T16:03:06.095Z,42.35
2018-05-21T16:05:33.848Z,44.09
2018-05-21T16:08:01.492Z,43.35
2018-05-21T16:10:29.208Z,43.21
2018-05-21T16:12:58.049Z,44.27
2018-05-21T16:15:25.759Z,43.93
2018-05-21T16:17:53.464Z,44.91
2018-05-21T16:20:21.083Z,44.89
2018-05-21T16:22:48.743Z,44.41
2018-05-21T16:25:16.542Z,44.18
2018-05-21T16:27:44.302Z,45.69
2018-05-21T16:30:12.280Z,43.95
2018-05-21T16:32:39.931Z,44.99
2018-05-21T16:35:07.600Z,45.63
2018-05-21T16:37:35.343Z,45.34
2018-05-21T16:40:03.097Z,46.95
2018-05-21T16:42:30.808Z,46.23
2018-05-21T16:44:58.477Z,45.83
2018-05-21T16:47:26.143Z,47.42
2018-05-21T16:49:53.889Z,46.34
2018-05-21T16:52:21.525Z,46.71
2018-05-21T16:54:49.235Z,46.51
2018-05-21T16:57:16.876Z,45.89
2018-05-21T16:59:44.537Z,47.02
2018-05-21T17:02:12.242Z,46.82
2018-05-21T17:04:39.856Z,47.62
2018-05-21T17:07:07.577Z,46.67
2018-05-21T17:09:35.294Z,47.48
2018-05-21T17:12:03.099Z,47.12
2018-05-21T17:14:31.542Z,47.07
2018-05-21T17:16:59.389Z,46.65
2018-05-21T17:19:27.100Z,46.73
2018-05-21T17:21:55.321Z,48.32
2018-05-21T17:24:23.008Z,49.29
2018-05-21T17:26:50.712Z,48.17
2018-05-21T17:29:18.501Z,46.86
2018-05-21T17:31:46.220Z,46.92
2018-05-21T17:34:13.881Z,47.31
2018-05-21T17:36:41.693Z,47.49
2018-05-21T17:39:10.532Z,47.59
2018-05-21T17:41:38.277Z,49.40
2018-05-21T17:44:06.630Z,48.79
2018-05-21T17:46:34.297Z,48.00
2018-05-21T17:49:02.043Z,48.40
2018-05-21T17:51:29.754Z,48.73
2018-05-21T17:53:57.410Z,48.42
2018-05-21T17:56:26.241Z,50.93
2018-05-21T17:58:54.142Z,50.25
2018-05-21T18:01:21.798Z,51.08
2018-05-21T18:03:49.664Z,49.95
2018-05-21T18:06:17.394Z,51.74
2018-05-21T18:08:45.158Z,51.29
2018-05-21T18:11:12.897Z,49.49
2018-05-21T18:13:41.463Z,50.38
2018-05-21T18:16:09.487Z,49.11
2018-05-21T18:18:37.287Z,48.85
2018-05-21T18:21:06.145Z,50.53
2018-05-21T18:23:33.828Z,50.84
2018-05-21T18:26:01.560Z,49.32
2018-05-21T18:28:29.358Z,51.91
2018-05-21T18:30:57.124Z,51.23
2018-05-21T18:33:25.068Z,50.60
2018-05-21T18:35:53.633Z,51.31
2018-05-21T18:38:22.238Z,51.00
2018-05-21T18:40:50.414Z,50.75
2018-05-21T18:43:18.921Z,51.28
2018-05-21T18:45:46.685Z,52.51
2018-05-21T18:48:15.600Z,51.95
2018-05-21T18:50:44.251Z,51.82
2018-05-21T18:53:12.016Z,52.51
2018-05-21T18:55:40.042Z,53.22
2018-05-21T18:58:09.322Z,53.44
2018-05-21T19:00:38.676Z,55.13
2018-05-21T19:03:07.723Z,56.24
2018-05-21T19:05:35.833Z,57.83
2018-05-21T19:08:03.623Z,57.88
2018-05-21T19:10:32.036Z,57.30
2018-05-21T19:13:01.683Z,57.98
2018-05-21T19:15:29.364Z,59.24
2018-05-21T19:17:57.462Z,60.36
2018-05-21T19:20:25.444Z,60.59
2018-05-21T19:22:54.364Z,61.51
2018-05-21T19:25:22.604Z,62.38
2018-05-21T19:27:50.771Z,62.46
2018-05-21T19:30:19.085Z,62.13
2018-05-21T19:32:48.199Z,62.78
2018-05-21T19:35:16.508Z,62.11
2018-05-21T19:37:44.599Z,61.86
2018-05-21T19:40:13.095Z,62.52
2018-05-21T19:42:41.211Z,61.10
2018-05-21T19:45:09.017Z,61.75
2018-05-21T19:47:37.765Z,63.45
2018-05-21T19:50:06.515Z,65.03
2018-05-21T19:52:34.764Z,65.22
2018-05-21T19:55:02.599Z,65.69
2018-05-21T19:57:32.654Z,66.47
2018-05-21T20:00:00.653Z,65.76
2018-05-21T20:02:31.963Z,66.02
2018-05-21T20:04:59.876Z,65.03
2018-05-21T20:07:28.419Z,65.59
2018-05-21T20:09:56.391Z,65.04
2018-05-21T20:12:24.503Z,66.53
2018-05-21T20:14:52.918Z,67.63
2018-05-21T20:17:21.216Z,67.89
2018-05-21T20:19:49.777Z,68.78
2018-05-21T20:22:18.817Z,68.12
2018-05-21T20:24:47.596Z,67.72
2018-05-21T20:27:15.733Z,68.27
2018-05-21T20:29:43.480Z,67.78
2018-05-21T20:32:11.276Z,68.57
2018-05-21T20:34:39.040Z,68.63
2018-05-21T20:37:07.215Z,68.90
2018-05-21T20:39:34.954Z,68.73
2018-05-21T20:42:02.768Z,68.70
2018-05-21T20:44:30.478Z,68.16
2018-05-21T20:46:58.131Z,68.60
2018-05-21T20:49:25.833Z,68.77
2018-05-21T20:51:53.484Z,68.23
2018-05-21T20:54:21.199Z,69.36
2018-05-21T20:56:49.760Z,69.29
2018-05-21T20:59:17.528Z,69.34
2018-05-21T21:01:45.184Z,69.39
2018-05-21T21:04:12.793Z,69.28
2018-05-21T21:06:40.550Z,69.51
2018-05-21T21:09:08.168Z,69.92
2018-05-21T21:11:35.836Z,70.38
2018-05-21T21:14:03.486Z,70.50
2018-05-21T21:16:31.144Z,70.70
2018-05-21T21:18:58.771Z,70.44
2018-05-21T21:21:26.474Z,69.90
2018-05-21T21:23:54.169Z,70.47
2018-05-21T21:26:22.618Z,71.49
2018-05-21T21:28:50.251Z,71.61
2018-05-21T21:31:17.962Z,71.87
2018-05-21T21:33:45.572Z,71.62
2018-05-21T21:36:13.249Z,72.07
2018-05-21T21:38:40.906Z,71.98
2018-05-21T21:41:08.515Z,71.50
2018-05-21T21:43:36.912Z,71.68
2018-05-21T21:46:05.099Z,72.00
2018-05-21T21:48:32.774Z,71.49
2018-05-21T21:51:00.448Z,71.36
2018-05-21T21:53:28.316Z,71.73
2018-05-21T21:55:55.910Z,71.96
2018-05-21T21:58:23.548Z,72.61
2018-05-21T22:00:51.182Z,73.03
2018-05-21T22:03:19.051Z,72.70
2018-05-21T22:05:46.644Z,72.92
2018-05-21T22:08:14.498Z,72.76
2018-05-21T22:10:42.165Z,72.87
2018-05-21T22:13:09.817Z,73.02
2018-05-21T22:15:37.887Z,73.05
2018-05-21T22:18:05.766Z,72.55
2018-05-21T22:20:33.438Z,72.15
2018-05-21T22:23:01.089Z,73.23
2018-05-21T22:25:28.721Z,72.99
2018-05-21T22:27:56.429Z,73.06
2018-05-21T22:30:24.516Z,72.90
2018-05-21T22:32:52.196Z,73.46
2018-05-21T22:35:19.809Z,73.57
2018-05-21T22:37:47.573Z,73.40
2018-05-21T22:40:15.181Z,73.67
2018-05-21T22:42:45.253Z,74.28
2018-05-21T22:45:12.924Z,74.11
2018-05-21T22:47:40.577Z,74.01
2018-05-21T22:50:08.183Z,74.45
2018-05-21T22:52:35.947Z,74.43
2018-05-21T22:55:03.602Z,74.90
2018-05-21T22:57:31.251Z,75.08
2018-05-21T22:59:58.851Z,74.81
2018-05-21T23:02:26.442Z,75.07
2018-05-21T23:04:54.138Z,75.20
2018-05-21T23:07:21.731Z,75.34
2018-05-21T23:09:49.425Z,75.28
2018-05-21T23:12:17.036Z,75.69
2018-05-21T23:14:44.704Z,75.56
2018-05-21T23:17:12.345Z,76.25
2018-05-21T23:19:40.019Z,76.54
2018-05-21T23:22:07.853Z,76.52
2018-05-21T23:24:35.501Z,76.93
2018-05-21T23:27:03.595Z,77.68
2018-05-21T23:29:31.448Z,77.41
2018-05-21T23:31:59.041Z,77.82
2018-05-21T23:34:26.782Z,77.75
2018-05-21T23:36:55.673Z,77.38
2018-05-21T23:39:23.286Z,77.63
2018-05-21T23:41:50.949Z,77.44
2018-05-21T23:44:18.620Z,77.39
2018-05-21T23:46:46.320Z,77.20
2018-05-21T23:49:13.894Z,76.99
2018-05-21T23:51:41.642Z,77.56
2018-05-21T23:54:09.264Z,77.88
2018-05-21T23:56:38.229Z,78.94
2018-05-21T23:59:06.500Z,78.87
